createdAt,value
2022-11-24T00:01:22.458Z,7.68
2022-11-24T00:04:02.872Z,7.64
2022-11-24T00:06:32.323Z,7.60
2022-11-24T00:08:59.993Z,7.59
2022-11-24T00:11:32.995Z,7.51
2022-11-24T00:14:01.745Z,7.45
2022-11-24T00:16:31.538Z,7.42
2022-11-24T00:19:00.799Z,7.31
2022-11-24T00:21:30.368Z,7.19
2022-11-24T00:23:58.721Z,7.23
2022-11-24T00:26:32.103Z,7.27
2022-11-24T00:29:03.021Z,7.28
2022-11-24T00:31:33.635Z,7.29
2022-11-24T00:34:03.565Z,7.27
2022-11-24T00:36:33.260Z,7.23
2022-11-24T00:39:03.384Z,7.23
2022-11-24T00:41:31.897Z,7.17
2022-11-24T00:44:00.127Z,7.15
2022-11-24T00:46:28.543Z,7.13
2022-11-24T00:48:56.593Z,7.12
2022-11-24T00:51:27.022Z,7.13
2022-11-24T00:53:56.370Z,7.13
2022-11-24T00:56:24.841Z,7.14
2022-11-24T00:58:52.989Z,7.07
2022-11-24T01:01:23.605Z,7.06
2022-11-24T01:03:51.816Z,7.15
2022-11-24T01:06:22.041Z,7.08
2022-11-24T01:08:49.855Z,7.06
2022-11-24T01:11:18.765Z,7.04
2022-11-24T01:13:48.753Z,6.98
2022-11-24T01:16:16.312Z,7.03
2022-11-24T01:18:44.157Z,6.89
2022-11-24T01:21:11.806Z,6.90
2022-11-24T01:23:39.564Z,6.85
2022-11-24T01:26:08.876Z,6.86
2022-11-24T01:28:40.564Z,6.84
2022-11-24T01:31:11.846Z,6.85
2022-11-24T01:33:39.877Z,6.87
2022-11-24T01:36:08.178Z,6.93
2022-11-24T01:38:35.843Z,6.98
2022-11-24T01:41:08.217Z,7.04
2022-11-24T01:43:35.892Z,7.07
2022-11-24T01:46:16.057Z,7.08
2022-11-24T01:48:49.871Z,7.13
2022-11-24T01:51:30.395Z,7.17
2022-11-24T01:54:01.843Z,7.17
2022-11-24T01:56:29.753Z,7.23
2022-11-24T01:59:00.663Z,7.31
2022-11-24T02:01:29.303Z,7.35
2022-11-24T02:03:58.208Z,7.40
2022-11-24T02:06:30.317Z,7.45
2022-11-24T02:09:09.062Z,7.49
2022-11-24T02:11:39.843Z,7.47
2022-11-24T02:14:10.481Z,7.56
2022-11-24T02:16:40.589Z,7.49
2022-11-24T02:19:19.337Z,7.59
2022-11-24T02:21:46.912Z,7.57
2022-11-24T02:24:25.662Z,7.58
2022-11-24T02:26:53.226Z,7.59
2022-11-24T02:29:21.512Z,7.61
2022-11-24T02:31:56.171Z,7.65
2022-11-24T02:34:23.937Z,7.65
2022-11-24T02:36:51.478Z,7.68
2022-11-24T02:39:19.090Z,7.69
2022-11-24T02:41:54.911Z,7.74
2022-11-24T02:44:26.565Z,7.79
2022-11-24T02:47:07.923Z,7.72
2022-11-24T02:49:35.578Z,7.77
2022-11-24T02:52:03.722Z,7.74
2022-11-24T02:54:32.217Z,7.77
2022-11-24T02:57:00.302Z,7.79
2022-11-24T02:59:27.887Z,7.79
2022-11-24T03:01:55.547Z,7.79
2022-11-24T03:04:23.186Z,7.84
2022-11-24T03:06:50.816Z,7.83
2022-11-24T03:09:18.423Z,7.84
2022-11-24T03:11:46.036Z,7.82
2022-11-24T03:14:13.605Z,7.81
2022-11-24T03:16:41.153Z,7.82
2022-11-24T03:19:08.720Z,7.82
2022-11-24T03:21:37.928Z,7.78
2022-11-24T03:24:05.825Z,7.79
2022-11-24T03:26:35.283Z,7.74
2022-11-24T03:29:02.885Z,7.76
2022-11-24T03:31:30.565Z,7.74
2022-11-24T03:33:58.224Z,7.72
2022-11-24T03:36:25.833Z,7.69
2022-11-24T03:38:53.806Z,7.74
2022-11-24T03:41:21.771Z,7.70
2022-11-24T03:43:49.329Z,7.65
2022-11-24T03:46:17.003Z,7.64
2022-11-24T03:48:44.750Z,7.67
2022-11-24T03:51:12.383Z,7.69
2022-11-24T03:53:39.976Z,7.71
2022-11-24T03:56:07.915Z,7.68
2022-11-24T03:58:35.507Z,7.75
2022-11-24T04:01:03.567Z,7.80
2022-11-24T04:03:31.182Z,7.82
2022-11-24T04:05:58.728Z,7.81
2022-11-24T04:08:26.402Z,7.80
2022-11-24T04:10:55.288Z,7.83
2022-11-24T04:13:24.813Z,7.86
2022-11-24T04:15:53.024Z,7.87
2022-11-24T04:18:20.984Z,7.86
2022-11-24T04:20:51.434Z,7.89
2022-11-24T04:23:19.807Z,7.84
2022-11-24T04:25:47.601Z,7.85
2022-11-24T04:28:15.092Z,7.82
2022-11-24T04:30:44.715Z,7.80
2022-11-24T04:33:13.389Z,7.79
2022-11-24T04:35:40.908Z,7.76
2022-11-24T04:38:08.363Z,7.77
2022-11-24T04:40:35.913Z,7.75
2022-11-24T04:43:03.379Z,7.70
2022-11-24T04:45:30.886Z,7.75
2022-11-24T04:47:58.373Z,7.80
2022-11-24T04:50:25.864Z,7.80
2022-11-24T04:52:53.575Z,7.79
2022-11-24T04:55:21.031Z,7.74
2022-11-24T04:57:48.597Z,7.71
2022-11-24T05:00:16.365Z,7.67
2022-11-24T05:02:43.819Z,7.59
2022-11-24T05:05:11.546Z,7.49
2022-11-24T05:07:39.252Z,7.46
2022-11-24T05:10:25.021Z,7.32
2022-11-24T05:12:59.506Z,7.20
2022-11-24T05:15:27.668Z,7.19
2022-11-24T05:17:55.517Z,7.10
2022-11-24T05:20:23.221Z,7.07
2022-11-24T05:22:50.758Z,6.99
2022-11-24T05:25:18.660Z,6.87
2022-11-24T05:27:46.177Z,6.85
2022-11-24T05:30:14.284Z,6.81
2022-11-24T05:32:42.074Z,6.83
2022-11-24T05:35:11.061Z,6.84
2022-11-24T05:37:39.039Z,6.77
2022-11-24T05:40:07.228Z,6.78
2022-11-24T05:42:47.848Z,6.76
2022-11-24T05:45:20.484Z,6.79
2022-11-24T05:47:48.859Z,6.82
2022-11-24T05:50:18.486Z,6.83
2022-11-24T05:52:46.551Z,6.85
2022-11-24T05:55:15.681Z,6.84
2022-11-24T05:57:43.609Z,6.87
2022-11-24T06:00:11.845Z,6.81
2022-11-24T06:02:39.443Z,6.82
2022-11-24T06:05:07.328Z,6.82
2022-11-24T06:07:34.888Z,6.84
2022-11-24T06:10:02.452Z,6.82
2022-11-24T06:12:29.884Z,6.82
2022-11-24T06:14:57.418Z,6.81
2022-11-24T06:17:25.340Z,6.79
2022-11-24T06:19:52.784Z,6.82
2022-11-24T06:22:20.331Z,6.82
2022-11-24T06:24:50.193Z,6.78
2022-11-24T06:27:17.969Z,6.76
2022-11-24T06:29:45.560Z,6.77
2022-11-24T06:32:13.113Z,6.77
2022-11-24T06:34:40.751Z,6.79
2022-11-24T06:37:08.336Z,6.85
2022-11-24T06:39:35.918Z,6.90
2022-11-24T06:42:04.670Z,6.89
2022-11-24T06:44:32.576Z,6.87
2022-11-24T06:47:00.388Z,6.88
2022-11-24T06:49:27.984Z,6.85
2022-11-24T06:51:56.581Z,6.93
2022-11-24T06:54:24.099Z,6.84
2022-11-24T06:56:57.477Z,6.94
2022-11-24T06:59:25.073Z,6.95
2022-11-24T07:01:52.549Z,6.97
2022-11-24T07:04:20.258Z,6.96
2022-11-24T07:06:47.895Z,6.90
2022-11-24T07:09:15.484Z,6.95
2022-11-24T07:11:45.850Z,6.93
2022-11-24T07:14:13.428Z,6.95
2022-11-24T07:16:41.422Z,6.98
2022-11-24T07:19:10.572Z,6.98
2022-11-24T07:21:38.215Z,6.98
2022-11-24T07:24:06.298Z,6.98
2022-11-24T07:26:37.479Z,6.99
2022-11-24T07:29:06.343Z,7.01
2022-11-24T07:31:34.217Z,6.97
2022-11-24T07:34:01.870Z,6.94
2022-11-24T07:36:29.684Z,6.97
2022-11-24T07:38:57.302Z,6.91
2022-11-24T07:41:24.895Z,6.96
2022-11-24T07:43:53.037Z,6.92
2022-11-24T07:46:21.328Z,6.94
2022-11-24T07:48:49.078Z,6.90
2022-11-24T07:51:16.968Z,6.88
2022-11-24T07:53:44.694Z,6.92
2022-11-24T07:56:12.669Z,6.92
2022-11-24T07:58:40.424Z,6.97
2022-11-24T08:01:15.923Z,6.96
2022-11-24T08:03:44.456Z,6.99
2022-11-24T08:06:25.136Z,6.95
2022-11-24T08:08:55.768Z,7.02
2022-11-24T08:11:23.575Z,7.02
2022-11-24T08:13:51.108Z,7.04
2022-11-24T08:16:20.478Z,7.04
2022-11-24T08:18:54.735Z,7.05
2022-11-24T08:21:23.348Z,7.06
2022-11-24T08:23:51.468Z,7.07
2022-11-24T08:26:19.386Z,7.06
2022-11-24T08:28:48.204Z,7.06
2022-11-24T08:31:18.576Z,7.11
2022-11-24T08:33:46.870Z,7.03
2022-11-24T08:36:17.064Z,7.01
2022-11-24T08:38:45.260Z,7.02
2022-11-24T08:41:15.855Z,7.16
2022-11-24T08:43:43.850Z,7.27
2022-11-24T08:46:14.385Z,7.31
2022-11-24T08:48:42.091Z,7.44
2022-11-24T08:51:12.264Z,7.39
2022-11-24T08:53:40.800Z,7.46
2022-11-24T08:56:10.022Z,7.41
2022-11-24T08:58:38.607Z,7.44
2022-11-24T09:01:14.882Z,7.46
2022-11-24T09:03:49.939Z,7.49
2022-11-24T09:06:22.633Z,7.53
2022-11-24T09:08:50.347Z,7.59
2022-11-24T09:11:18.573Z,7.67
2022-11-24T09:13:46.574Z,7.75
2022-11-24T09:16:22.778Z,7.85
2022-11-24T09:19:06.502Z,7.95
2022-11-24T09:21:37.797Z,8.02
2022-11-24T09:24:06.434Z,7.93
2022-11-24T09:26:36.957Z,7.95
2022-11-24T09:29:07.958Z,8.07
2022-11-24T09:31:37.335Z,8.13
2022-11-24T09:34:07.129Z,8.26
2022-11-24T09:36:35.359Z,8.44
2022-11-24T09:39:03.027Z,8.48
2022-11-24T09:41:51.913Z,8.39
2022-11-24T09:44:31.220Z,8.44
2022-11-24T09:46:59.737Z,8.46
2022-11-24T09:49:51.233Z,8.72
2022-11-24T09:52:34.809Z,8.91
2022-11-24T09:55:06.151Z,9.05
2022-11-24T09:57:37.891Z,9.10
2022-11-24T10:00:14.198Z,9.30
2022-11-24T10:02:41.733Z,9.27
2022-11-24T10:05:09.622Z,9.39
2022-11-24T10:07:48.288Z,9.36
2022-11-24T10:10:25.485Z,9.46
2022-11-24T10:13:36.419Z,9.72
2022-11-24T10:16:27.018Z,9.81
2022-11-24T10:19:06.507Z,9.78
2022-11-24T10:21:38.148Z,9.88
2022-11-24T10:24:33.269Z,9.65
2022-11-24T10:27:19.406Z,9.97
2022-11-24T10:29:52.459Z,9.71
2022-11-24T10:32:29.082Z,9.91
2022-11-24T10:35:07.393Z,10.00
2022-11-24T10:37:41.433Z,10.00
2022-11-24T10:40:56.842Z,10.33
2022-11-24T10:43:27.951Z,10.34
2022-11-24T10:46:26.205Z,10.32
2022-11-24T10:49:06.167Z,10.35
2022-11-24T10:51:36.979Z,10.36
2022-11-24T10:54:19.385Z,10.20
2022-11-24T10:56:48.292Z,10.23
2022-11-24T10:59:30.771Z,10.20
2022-11-24T11:01:58.425Z,10.20
2022-11-24T11:04:29.949Z,10.10
2022-11-24T11:07:20.755Z,10.33
2022-11-24T11:09:49.632Z,10.25
2022-11-24T11:12:45.048Z,10.25
2022-11-24T11:15:25.944Z,10.38
2022-11-24T11:17:58.534Z,10.53
2022-11-24T11:20:30.498Z,10.56
2022-11-24T11:23:00.364Z,10.58
2022-11-24T11:25:31.736Z,10.61
2022-11-24T11:28:18.432Z,10.52
2022-11-24T11:31:16.654Z,10.63
2022-11-24T11:34:03.881Z,10.66
2022-11-24T11:36:34.102Z,10.76
2022-11-24T11:39:01.782Z,10.48
2022-11-24T11:41:34.858Z,10.68
2022-11-24T11:44:15.239Z,10.82
2022-11-24T11:46:44.759Z,10.75
2022-11-24T11:49:13.357Z,10.78
2022-11-24T11:51:56.648Z,10.80
2022-11-24T11:54:38.118Z,10.97
2022-11-24T11:57:12.389Z,10.92
2022-11-24T11:59:56.766Z,11.06
2022-11-24T12:02:40.764Z,11.22
2022-11-24T12:05:35.190Z,11.14
2022-11-24T12:08:20.781Z,11.03
2022-11-24T12:11:05.647Z,10.89
2022-11-24T12:13:49.094Z,10.95
2022-11-24T12:16:35.537Z,11.08
2022-11-24T12:19:28.472Z,10.95
2022-11-24T12:22:18.094Z,10.87
2022-11-24T12:25:02.943Z,10.85
2022-11-24T12:27:38.932Z,10.69
2022-11-24T12:30:22.024Z,10.90
2022-11-24T12:33:01.615Z,10.87
2022-11-24T12:35:41.027Z,10.80
2022-11-24T12:38:17.000Z,10.95
2022-11-24T12:41:33.528Z,10.82
2022-11-24T12:43:58.773Z,10.81
2022-11-24T12:46:47.886Z,10.63
2022-11-24T12:49:38.581Z,10.65
2022-11-24T12:52:21.730Z,10.75
2022-11-24T12:54:49.260Z,10.67
2022-11-24T12:57:27.428Z,10.70
2022-11-24T13:00:08.970Z,10.71
2022-11-24T13:02:52.293Z,10.82
2022-11-24T13:05:42.688Z,10.97
2022-11-24T13:08:10.602Z,10.91
2022-11-24T13:10:55.861Z,10.90
2022-11-24T13:13:29.021Z,10.74
2022-11-24T13:16:36.101Z,10.66
2022-11-24T13:19:12.785Z,10.56
2022-11-24T13:21:45.488Z,10.51
2022-11-24T13:24:20.002Z,10.48
2022-11-24T13:27:16.194Z,10.46
2022-11-24T13:29:47.836Z,10.48
2022-11-24T13:32:15.393Z,10.37
2022-11-24T13:34:43.375Z,10.41
2022-11-24T13:37:31.784Z,10.48
2022-11-24T13:40:13.116Z,10.43
2022-11-24T13:42:56.086Z,10.39
2022-11-24T13:45:42.032Z,10.41
2022-11-24T13:48:22.527Z,10.34
2022-11-24T13:50:54.025Z,10.40
2022-11-24T13:53:41.937Z,10.40
2022-11-24T13:56:15.141Z,10.42
2022-11-24T13:58:45.012Z,10.43
2022-11-24T14:01:19.091Z,10.53
2022-11-24T14:04:21.667Z,10.50
2022-11-24T14:06:48.777Z,10.40
2022-11-24T14:09:27.890Z,10.41
2022-11-24T14:12:04.391Z,10.38
2022-11-24T14:14:31.994Z,10.33
2022-11-24T14:17:15.231Z,10.25
2022-11-24T14:19:44.783Z,10.27
2022-11-24T14:22:17.199Z,10.21
2022-11-24T14:24:46.201Z,10.20
2022-11-24T14:27:17.679Z,10.00
2022-11-24T14:29:56.745Z,9.94
2022-11-24T14:32:24.773Z,9.90
2022-11-24T14:34:54.123Z,9.82
2022-11-24T14:37:21.852Z,9.78
2022-11-24T14:39:49.560Z,9.78
2022-11-24T14:42:18.928Z,9.80
2022-11-24T14:44:54.141Z,9.78
2022-11-24T14:47:30.574Z,9.69
2022-11-24T14:50:08.797Z,9.61
2022-11-24T14:52:36.857Z,9.54
2022-11-24T14:55:21.826Z,9.53
2022-11-24T14:57:50.612Z,9.50
2022-11-24T15:00:33.317Z,9.45
2022-11-24T15:03:03.677Z,9.39
2022-11-24T15:06:02.298Z,9.33
2022-11-24T15:08:43.248Z,9.33
2022-11-24T15:11:10.848Z,9.26
2022-11-24T15:13:39.316Z,9.22
2022-11-24T15:16:17.707Z,9.14
2022-11-24T15:18:48.025Z,9.03
2022-11-24T15:21:19.575Z,9.01
2022-11-24T15:24:14.631Z,8.96
2022-11-24T15:26:42.541Z,8.86
2022-11-24T15:29:11.420Z,8.85
2022-11-24T15:31:40.533Z,8.85
2022-11-24T15:34:10.439Z,8.77
2022-11-24T15:36:38.023Z,8.72
2022-11-24T15:39:05.541Z,8.66
2022-11-24T15:41:34.221Z,8.62
2022-11-24T15:44:01.840Z,8.56
2022-11-24T15:46:37.623Z,8.52
2022-11-24T15:49:05.824Z,8.47
2022-11-24T15:51:33.804Z,8.52
2022-11-24T15:54:01.691Z,8.47
2022-11-24T15:56:36.340Z,8.47
2022-11-24T15:59:04.721Z,8.42
2022-11-24T16:01:33.852Z,8.46
2022-11-24T16:04:02.840Z,8.45
2022-11-24T16:06:30.602Z,8.43
2022-11-24T16:08:59.191Z,8.37
2022-11-24T16:11:26.837Z,8.34
2022-11-24T16:13:54.750Z,8.33
2022-11-24T16:16:24.712Z,8.34
2022-11-24T16:18:52.660Z,8.30
2022-11-24T16:21:20.238Z,8.31
2022-11-24T16:23:48.779Z,8.31
2022-11-24T16:26:16.411Z,8.30
2022-11-24T16:28:45.209Z,8.27
2022-11-24T16:31:15.661Z,8.20
2022-11-24T16:33:44.724Z,8.27
2022-11-24T16:36:12.520Z,8.20
2022-11-24T16:38:40.127Z,8.16
2022-11-24T16:41:11.100Z,8.17
2022-11-24T16:43:39.284Z,8.13
2022-11-24T16:46:09.933Z,8.16
2022-11-24T16:48:37.871Z,8.09
2022-11-24T16:51:10.158Z,8.17
2022-11-24T16:53:38.209Z,8.20
2022-11-24T16:56:05.980Z,8.19
2022-11-24T16:58:33.761Z,8.23
2022-11-24T17:01:08.860Z,8.26
2022-11-24T17:03:37.490Z,8.26
2022-11-24T17:06:08.205Z,8.25
2022-11-24T17:08:37.525Z,8.25
2022-11-24T17:11:09.112Z,8.23
2022-11-24T17:13:36.708Z,8.23
2022-11-24T17:16:06.510Z,8.28
2022-11-24T17:18:35.052Z,8.21
2022-11-24T17:21:09.244Z,8.25
2022-11-24T17:23:37.296Z,8.05
2022-11-24T17:26:16.076Z,8.23
2022-11-24T17:28:44.543Z,8.20
2022-11-24T17:31:26.438Z,8.19
2022-11-24T17:33:56.270Z,8.14
2022-11-24T17:36:24.724Z,8.14
2022-11-24T17:38:52.588Z,8.13
2022-11-24T17:41:21.097Z,8.18
2022-11-24T17:43:52.944Z,8.24
2022-11-24T17:46:20.802Z,8.25
2022-11-24T17:48:48.460Z,8.24
2022-11-24T17:51:18.707Z,8.19
2022-11-24T17:53:49.815Z,8.18
2022-11-24T17:56:23.478Z,8.18
2022-11-24T17:58:55.987Z,8.19
2022-11-24T18:01:24.336Z,8.18
2022-11-24T18:03:53.657Z,8.15
2022-11-24T18:06:24.938Z,8.18
2022-11-24T18:08:54.004Z,8.17
2022-11-24T18:11:30.475Z,8.18
2022-11-24T18:14:02.138Z,8.16
2022-11-24T18:16:32.321Z,8.17
2022-11-24T18:19:08.873Z,8.23
2022-11-24T18:21:41.662Z,8.23
2022-11-24T18:24:11.309Z,8.18
2022-11-24T18:26:40.250Z,8.13
2022-11-24T18:29:08.086Z,8.10
2022-11-24T18:31:36.310Z,8.03
2022-11-24T18:34:06.070Z,8.06
2022-11-24T18:36:34.460Z,8.03
2022-11-24T18:39:06.617Z,8.03
2022-11-24T18:41:34.826Z,8.03
2022-11-24T18:44:03.276Z,7.97
2022-11-24T18:46:30.908Z,7.95
2022-11-24T18:48:58.479Z,7.90
2022-11-24T18:51:27.140Z,7.94
2022-11-24T18:53:57.969Z,7.84
2022-11-24T18:56:26.138Z,7.81
2022-11-24T18:58:55.267Z,7.83
2022-11-24T19:01:26.237Z,7.80
2022-11-24T19:03:57.496Z,7.79
2022-11-24T19:06:33.915Z,7.76
2022-11-24T19:09:14.880Z,7.72
2022-11-24T19:11:45.673Z,7.76
2022-11-24T19:14:16.346Z,7.69
2022-11-24T19:16:44.717Z,7.68
2022-11-24T19:19:13.576Z,7.69
2022-11-24T19:21:41.989Z,7.67
2022-11-24T19:24:10.962Z,7.72
2022-11-24T19:26:39.451Z,7.65
2022-11-24T19:29:08.017Z,7.61
2022-11-24T19:31:36.119Z,7.60
2022-11-24T19:34:05.467Z,7.58
2022-11-24T19:36:33.354Z,7.57
2022-11-24T19:39:00.960Z,7.57
2022-11-24T19:41:32.638Z,7.52
2022-11-24T19:44:00.783Z,7.53
2022-11-24T19:46:30.181Z,7.52
2022-11-24T19:49:00.473Z,7.49
2022-11-24T19:51:31.344Z,7.49
2022-11-24T19:53:59.431Z,7.52
2022-11-24T19:56:29.403Z,7.54
2022-11-24T19:58:57.588Z,7.49
2022-11-24T20:01:28.098Z,7.56
2022-11-24T20:04:03.731Z,7.50
2022-11-24T20:06:33.760Z,7.47
2022-11-24T20:09:02.054Z,7.44
2022-11-24T20:11:30.173Z,7.47
2022-11-24T20:13:58.279Z,7.44
2022-11-24T20:16:29.633Z,7.46
2022-11-24T20:19:02.035Z,7.47
2022-11-24T20:21:31.874Z,7.47
2022-11-24T20:24:05.363Z,7.48
2022-11-24T20:26:35.888Z,7.53
2022-11-24T20:29:04.297Z,7.50
2022-11-24T20:31:34.836Z,7.58
2022-11-24T20:34:04.947Z,7.62
2022-11-24T20:36:34.476Z,7.66
2022-11-24T20:39:05.287Z,7.68
2022-11-24T20:41:35.232Z,7.67
2022-11-24T20:44:07.238Z,7.73
2022-11-24T20:46:37.706Z,7.76
2022-11-24T20:49:07.180Z,7.80
2022-11-24T20:51:39.067Z,7.85
2022-11-24T20:54:09.570Z,7.94
2022-11-24T20:56:39.811Z,7.98
2022-11-24T20:59:07.857Z,8.04
2022-11-24T21:01:40.763Z,8.04
2022-11-24T21:04:10.099Z,8.03
2022-11-24T21:06:38.089Z,8.09
2022-11-24T21:09:07.933Z,8.14
2022-11-24T21:11:36.032Z,8.16
2022-11-24T21:14:03.745Z,8.19
2022-11-24T21:16:33.594Z,8.18
2022-11-24T21:19:04.576Z,8.31
2022-11-24T21:21:35.172Z,8.29
2022-11-24T21:24:07.611Z,8.30
2022-11-24T21:26:39.074Z,8.39
2022-11-24T21:29:07.595Z,8.36
2022-11-24T21:31:39.403Z,8.40
2022-11-24T21:34:08.477Z,8.39
2022-11-24T21:36:40.692Z,8.35
2022-11-24T21:39:08.408Z,8.29
2022-11-24T21:41:35.969Z,8.30
2022-11-24T21:44:03.675Z,8.31
2022-11-24T21:46:39.023Z,8.27
2022-11-24T21:49:10.062Z,8.35
2022-11-24T21:51:37.591Z,8.31
2022-11-24T21:54:05.623Z,8.27
2022-11-24T21:56:33.127Z,8.30
2022-11-24T21:59:00.688Z,8.36
2022-11-24T22:01:29.500Z,8.31
2022-11-24T22:03:57.309Z,8.34
2022-11-24T22:06:24.895Z,8.31
2022-11-24T22:08:52.420Z,8.30
2022-11-24T22:11:22.682Z,8.33
2022-11-24T22:13:51.553Z,8.37
2022-11-24T22:16:24.754Z,8.32
2022-11-24T22:18:52.880Z,8.33
2022-11-24T22:21:23.847Z,8.36
2022-11-24T22:23:52.492Z,8.38
2022-11-24T22:26:22.406Z,8.45
2022-11-24T22:28:50.672Z,8.46
2022-11-24T22:31:21.063Z,8.44
2022-11-24T22:33:49.757Z,8.46
2022-11-24T22:36:18.704Z,8.48
2022-11-24T22:38:46.187Z,8.45
2022-11-24T22:41:16.444Z,8.46
2022-11-24T22:43:45.168Z,8.49
2022-11-24T22:46:21.495Z,8.54
2022-11-24T22:48:50.296Z,8.51
2022-11-24T22:51:20.966Z,8.52
2022-11-24T22:53:49.929Z,8.55
2022-11-24T22:56:18.180Z,8.51
2022-11-24T22:58:45.704Z,8.51
2022-11-24T23:01:16.133Z,8.61
2022-11-24T23:03:44.294Z,8.61
2022-11-24T23:06:20.410Z,8.67
2022-11-24T23:08:48.820Z,8.63
2022-11-24T23:11:23.741Z,8.68
2022-11-24T23:13:56.701Z,8.64
2022-11-24T23:16:25.189Z,8.65
2022-11-24T23:18:54.167Z,8.63
2022-11-24T23:21:24.464Z,8.59
2022-11-24T23:23:52.804Z,8.61
2022-11-24T23:26:23.189Z,8.56
2022-11-24T23:28:50.723Z,8.54
2022-11-24T23:31:21.495Z,8.44
2022-11-24T23:33:49.172Z,8.45
2022-11-24T23:36:18.776Z,8.35
2022-11-24T23:38:46.770Z,8.35
2022-11-24T23:41:26.229Z,8.32
2022-11-24T23:43:53.987Z,8.22
2022-11-24T23:46:24.212Z,8.23
2022-11-24T23:48:53.321Z,8.27
2022-11-24T23:51:26.756Z,8.24
2022-11-24T23:53:54.822Z,8.16
2022-11-24T23:56:26.964Z,8.16
2022-11-24T23:58:55.148Z,8.13
